Time;durP1;ratioP1;P1;durP2;ratioP2;P2;SDS_P1;SDS_P2;PMS_P1;PMS_P2;Temp;Humidity;BMP_temperature;BMP_pressure;BME280_temperature;BME280_humidity;BME280_pressure;Samples;Min_cycle;Max_cycle;Signal;HPM_P1;HPM_P2
2021/12/13 00:01:10;;;;;;;69.82;27.92;;;;;;;2.19;100.00;99523.25;12603235;23;20042;-83
2021/12/13 00:06:23;;;;;;;53.40;23.52;;;;;;;2.23;100.00;99524.41;12748113;23;20021;-82
2021/12/13 00:11:35;;;;;;;79.97;27.65;;;;;;;2.18;100.00;99522.47;12746461;23;20017;-82
2021/12/13 00:16:57;;;;;;;78.78;28.00;;;;;;;2.21;100.00;99521.19;12747594;23;20090;-82
2021/12/13 00:22:06;;;;;;;63.35;26.80;;;;;;;2.27;100.00;99509.63;12738681;23;20013;-82
2021/12/13 00:27:19;;;;;;;82.00;27.70;;;;;;;2.24;100.00;99510.13;12745953;23;20014;-83
2021/12/13 00:32:43;;;;;;;74.68;27.98;;;;;;;2.28;100.00;99513.88;12626018;23;20032;-84
2021/12/13 00:37:57;;;;;;;81.50;27.77;;;;;;;2.40;100.00;99513.84;12657233;23;20042;-83
2021/12/13 00:43:24;;;;;;;78.25;26.98;;;;;;;2.27;100.00;99526.34;12625025;23;20026;-81
2021/12/13 00:48:44;;;;;;;69.47;26.95;;;;;;;2.32;100.00;99519.53;12623281;23;20027;-82
2021/12/13 00:53:54;;;;;;;77.63;28.15;;;;;;;2.31;100.00;99523.22;12606726;23;20042;-82
2021/12/13 00:59:00;;;;;;;74.50;27.60;;;;;;;2.37;100.00;99528.34;12616724;23;20448;-80
2021/12/13 01:04:07;;;;;;;51.92;24.30;;;;;;;2.38;100.00;99531.81;12622418;23;20430;-80
2021/12/13 01:09:42;;;;;;;62.42;25.60;;;;;;;2.37;100.00;99536.31;12590782;23;20478;-79
2021/12/13 01:14:57;;;;;;;81.88;28.50;;;;;;;2.44;100.00;99530.88;12671050;23;20037;-80
2021/12/13 01:20:11;;;;;;;70.63;26.58;;;;;;;2.48;100.00;99543.41;12748339;23;20033;-80
2021/12/13 01:25:24;;;;;;;85.70;28.02;;;;;;;2.45;100.00;99545.72;12770716;23;20090;-78
2021/12/13 01:30:52;;;;;;;92.40;30.00;;;;;;;2.42;100.00;99549.66;12718241;23;20108;-81
2021/12/13 01:36:00;;;;;;;94.38;29.52;;;;;;;2.43;100.00;99550.47;12720735;23;20017;-79
2021/12/13 01:41:36;;;;;;;78.85;29.17;;;;;;;2.45;100.00;99543.06;12741048;23;20100;-79
2021/12/13 01:46:43;;;;;;;58.70;24.20;;;;;;;2.50;100.00;99551.91;12747164;23;20026;-80
2021/12/13 01:51:46;;;;;;;101.45;29.30;;;;;;;2.45;100.00;99551.81;12728653;23;20045;-81
2021/12/13 01:56:57;;;;;;;;;;;;;;;2.45;100.00;99540.41;12767627;23;20002;-80
2021/12/13 02:02:11;;;;;;;88.65;27.88;;;;;;;2.48;100.00;99534.66;12766522;23;19916;-80
2021/12/13 02:07:13;;;;;;;98.32;28.80;;;;;;;2.47;100.00;99525.91;12712108;23;20024;-79
2021/12/13 02:12:19;;;;;;;67.65;23.83;;;;;;;2.65;100.00;99524.06;12703473;23;20093;-78
2021/12/13 02:17:22;;;;;;;102.32;30.08;;;;;;;2.55;100.00;99528.13;12747052;23;20017;-77
2021/12/13 02:22:30;;;;;;;63.07;23.53;;;;;;;2.60;100.00;99538.03;12737909;23;20029;-80
2021/12/13 02:27:34;;;;;;;68.13;24.00;;;;;;;2.66;100.00;99536.28;12730349;23;20438;-77
2021/12/13 02:32:35;;;;;;;93.50;26.52;;;;;;;2.67;100.00;99545.84;12702243;23;20024;-79
2021/12/13 02:37:38;;;;;;;68.32;25.52;;;;;;;2.68;100.00;99544.78;12717239;23;20334;-80
2021/12/13 02:42:41;;;;;;;53.72;20.95;;;;;;;2.74;100.00;99543.81;12721182;23;20033;-79
2021/12/13 02:47:51;;;;;;;71.25;22.27;;;;;;;2.80;100.00;99548.97;12748274;23;20152;-80
2021/12/13 02:52:54;;;;;;;86.13;25.85;;;;;;;2.78;100.00;99551.06;12727791;23;20041;-81
2021/12/13 02:58:11;;;;;;;58.90;20.88;;;;;;;2.87;100.00;99556.78;12727944;23;20081;-80
2021/12/13 03:03:59;;;;;;;;;;;;;;;;;;;;;
2021/12/13 03:09:12;;;;;;;66.65;21.70;;;;;;;2.88;100.00;99557.56;12728162;23;20095;-79
2021/12/13 03:14:19;;;;;;;64.47;23.65;;;;;;;2.96;100.00;99544.72;12716767;23;20061;-80
2021/12/13 03:20:20;;;;;;;57.42;22.50;;;;;;;2.95;100.00;99563.53;12744930;23;20064;-81
2021/12/13 03:26:03;;;;;;;50.90;21.02;;;;;;;2.98;100.00;99555.09;12700811;23;20091;-79
2021/12/13 03:31:52;;;;;;;53.97;20.15;;;;;;;2.98;100.00;99561.19;12749381;23;20025;-82
2021/12/13 03:37:54;;;;;;;55.45;19.50;;;;;;;3.00;100.00;99559.09;12737762;23;20021;-82
2021/12/13 03:43:27;;;;;;;53.30;19.92;;;;;;;3.05;100.00;99563.69;12711285;23;20076;-79
2021/12/13 03:48:32;;;;;;;56.53;22.10;;;;;;;3.09;100.00;99559.50;12765838;23;20029;-80
2021/12/13 03:53:35;;;;;;;53.03;20.02;;;;;;;3.20;100.00;99569.22;12756740;23;20009;-79
2021/12/13 03:58:52;;;;;;;67.65;23.50;;;;;;;3.13;100.00;99568.59;12758595;23;20006;-80
2021/12/13 04:04:03;;;;;;;74.97;22.70;;;;;;;3.16;100.00;99567.28;12759720;23;20017;-80
2021/12/13 04:09:05;;;;;;;63.25;20.10;;;;;;;3.09;100.00;99576.22;12750930;23;20036;-80
2021/12/13 04:14:16;;;;;;;71.80;21.77;;;;;;;3.06;100.00;99575.91;12748030;23;20062;-81
2021/12/13 04:19:20;;;;;;;92.10;24.23;;;;;;;3.10;100.00;99572.50;12725957;23;20437;-80
2021/12/13 04:24:27;;;;;;;59.40;21.10;;;;;;;3.12;100.00;99575.75;12724845;23;20148;-80
2021/12/13 04:29:41;;;;;;;92.63;25.45;;;;;;;3.05;100.00;99574.28;12768194;23;20032;-79
2021/12/13 04:34:42;;;;;;;76.00;23.85;;;;;;;3.08;100.00;99581.75;12733486;23;20044;-79
2021/12/13 04:39:45;;;;;;;99.18;26.00;;;;;;;3.04;100.00;99586.75;12761588;23;20010;-79
2021/12/13 04:44:46;;;;;;;52.58;18.27;;;;;;;3.10;100.00;99583.13;12722033;23;20010;-78
2021/12/13 04:50:15;;;;;;;69.32;21.70;;;;;;;3.10;100.00;99585.78;12788110;23;20029;-79
2021/12/13 04:55:22;;;;;;;63.65;22.85;;;;;;;3.28;100.00;99590.03;12774581;23;20065;-81
2021/12/13 05:00:31;;;;;;;79.82;24.23;;;;;;;3.24;100.00;99598.72;12738954;23;20021;-81
2021/12/13 05:05:42;;;;;;;55.15;21.20;;;;;;;3.27;100.00;99603.53;12725023;23;20025;-80
2021/12/13 05:10:50;;;;;;;49.22;19.45;;;;;;;3.28;100.00;99607.78;12745881;23;20009;-81
2021/12/13 05:16:09;;;;;;;69.95;21.55;;;;;;;3.25;100.00;99618.91;12733392;23;20025;-79
2021/12/13 05:21:27;;;;;;;;;;;;;;;3.28;100.00;99621.06;12723310;23;20125;-78
2021/12/13 05:26:30;;;;;;;78.32;23.92;;;;;;;3.28;100.00;99624.50;12747993;23;19987;-79
2021/12/13 05:31:42;;;;;;;57.60;21.97;;;;;;;3.32;100.00;99628.31;12740336;23;20503;-81
2021/12/13 05:37:01;;;;;;;67.95;23.20;;;;;;;3.30;100.00;99637.56;12758108;23;20021;-82
2021/12/13 05:42:12;;;;;;;57.30;22.83;;;;;;;3.32;100.00;99643.44;12702878;23;20048;-82
2021/12/13 05:47:32;;;;;;;61.58;20.50;;;;;;;3.35;100.00;99654.34;12732483;23;20018;-81
2021/12/13 05:53:11;;;;;;;59.33;22.02;;;;;;;3.40;100.00;99657.09;12799145;23;20025;-82
2021/12/13 05:59:04;;;;;;;57.13;20.98;;;;;;;3.43;100.00;99663.75;12810192;23;20013;-80
2021/12/13 06:04:23;;;;;;;46.72;19.30;;;;;;;3.40;100.00;99667.72;12830040;23;20040;-80
2021/12/13 06:09:55;;;;;;;58.63;21.00;;;;;;;3.41;100.00;99671.16;12839712;23;20040;-82
2021/12/13 06:15:40;;;;;;;43.80;19.65;;;;;;;3.41;100.00;99681.78;12816939;23;20080;-84
2021/12/13 06:20:53;;;;;;;47.97;18.77;;;;;;;3.43;100.00;99683.13;12815438;23;20032;-83
2021/12/13 06:26:14;;;;;;;50.63;19.13;;;;;;;3.37;100.00;99677.97;12804369;23;20056;-83
2021/12/13 06:31:52;;;;;;;69.43;22.63;;;;;;;3.28;100.00;99674.13;12776439;23;20013;-79
2021/12/13 06:36:53;;;;;;;47.38;19.38;;;;;;;3.34;100.00;99684.59;12821424;23;20012;-80
2021/12/13 06:42:05;;;;;;;58.08;20.55;;;;;;;3.31;100.00;99679.78;12774325;23;20024;-83
2021/12/13 06:47:24;;;;;;;47.75;18.73;;;;;;;3.36;100.00;99677.19;12809531;23;20318;-80
2021/12/13 06:52:36;;;;;;;59.15;20.92;;;;;;;3.31;100.00;99679.78;12724639;23;20047;-78
2021/12/13 06:58:11;;;;;;;44.90;20.70;;;;;;;3.30;100.00;99691.44;12805023;23;20445;-81
2021/12/13 07:03:33;;;;;;;50.70;19.88;;;;;;;3.32;100.00;99702.59;12804879;23;20044;-81
2021/12/13 07:09:23;;;;;;;54.20;19.48;;;;;;;3.34;100.00;99705.81;12805079;23;20048;-81
2021/12/13 07:14:51;;;;;;;63.55;21.25;;;;;;;3.31;100.00;99706.31;12783108;23;20313;-84
2021/12/13 07:20:21;;;;;;;65.47;22.55;;;;;;;3.37;100.00;99710.63;12819078;23;20017;-82
2021/12/13 07:25:33;;;;;;;64.03;21.92;;;;;;;3.36;100.00;99702.91;12809845;23;20036;-80
2021/12/13 07:30:51;;;;;;;50.85;19.83;;;;;;;3.42;100.00;99708.06;12792416;23;20052;-83
2021/12/13 07:36:22;;;;;;;65.85;20.75;;;;;;;3.48;100.00;99710.81;12810238;23;20135;-82
2021/12/13 07:41:44;;;;;;;49.97;19.23;;;;;;;3.51;100.00;99719.09;12784760;23;20029;-81
2021/12/13 07:47:05;;;;;;;51.67;19.48;;;;;;;3.51;100.00;99720.94;12817055;23;20005;-81
2021/12/13 07:52:22;;;;;;;64.63;22.23;;;;;;;3.49;100.00;99723.84;12809980;23;20048;-81
2021/12/13 07:57:34;;;;;;;51.55;20.85;;;;;;;3.59;100.00;99729.31;12819463;23;20131;-81
2021/12/13 08:02:37;;;;;;;56.35;19.98;;;;;;;3.63;100.00;99732.28;12771650;23;20013;-80
2021/12/13 08:07:54;;;;;;;66.25;22.88;;;;;;;3.62;100.00;99738.63;12777831;23;20064;-80
2021/12/13 08:13:10;;;;;;;65.60;22.70;;;;;;;3.67;100.00;99746.69;12779448;23;20017;-81
2021/12/13 08:18:31;;;;;;;64.22;21.60;;;;;;;3.72;100.00;99741.47;12852170;23;20037;-80
2021/12/13 08:23:54;;;;;;;57.95;20.70;;;;;;;3.91;100.00;99744.66;12790250;23;20029;-82
2021/12/13 08:29:37;;;;;;;61.17;21.92;;;;;;;4.01;100.00;99755.44;12817430;23;20037;-82
2021/12/13 08:34:53;;;;;;;55.45;22.42;;;;;;;3.96;100.00;99761.50;12843174;23;20036;-81
2021/12/13 08:40:20;;;;;;;70.43;22.52;;;;;;;3.96;100.00;99760.69;12796796;23;20017;-82
2021/12/13 08:45:31;;;;;;;68.20;23.63;;;;;;;4.10;100.00;99750.50;12840383;23;20207;-82
2021/12/13 08:56:20;;;;;;;51.30;22.23;;;;;;;4.28;100.00;99759.00;12781374;23;20036;-81
2021/12/13 09:02:09;;;;;;;58.22;21.98;;;;;;;4.38;100.00;99768.16;12839080;23;20017;-82
2021/12/13 09:07:19;;;;;;;61.25;22.48;;;;;;;4.29;100.00;99767.78;12798083;23;20009;-83
2021/12/13 09:12:47;;;;;;;43.03;19.05;;;;;;;4.46;100.00;99773.88;12823374;23;20013;-82
2021/12/13 09:17:56;;;;;;;53.78;22.08;;;;;;;4.59;100.00;99769.25;12816250;23;20084;-84
2021/12/13 09:23:32;;;;;;;54.75;21.50;;;;;;;4.76;100.00;99772.69;12821019;23;20025;-83
2021/12/13 09:29:09;;;;;;;38.60;17.30;;;;;;;4.93;100.00;99772.56;12826380;23;20028;-82
2021/12/13 09:35:30;;;;;;;38.13;18.33;;;;;;;5.14;100.00;99769.09;12822955;23;20025;-79
2021/12/13 09:41:13;;;;;;;39.10;16.92;;;;;;;5.11;100.00;99761.59;12808972;23;20028;-81
2021/12/13 09:46:59;;;;;;;33.88;16.85;;;;;;;5.25;100.00;99765.50;12834524;23;20020;-81
2021/12/13 09:52:37;;;;;;;26.77;15.05;;;;;;;5.36;100.00;99767.19;12821954;23;20005;-82
2021/12/13 09:58:12;;;;;;;30.20;17.50;;;;;;;5.59;100.00;99762.63;12791158;23;20084;-80
2021/12/13 10:03:25;;;;;;;28.58;15.35;;;;;;;5.69;100.00;99749.38;12826546;23;20425;-81
2021/12/13 10:08:46;;;;;;;26.23;13.57;;;;;;;5.86;100.00;99747.38;12819951;23;20027;-80
2021/12/13 10:13:50;;;;;;;22.45;12.75;;;;;;;5.91;100.00;99751.97;12770372;23;20032;-81
2021/12/13 10:19:10;;;;;;;19.65;11.60;;;;;;;5.87;100.00;99746.31;12783447;23;20009;-82
2021/12/13 10:29:23;;;;;;;13.68;8.13;;;;;;;6.03;100.00;99720.59;12726577;23;20017;-82
2021/12/13 10:34:51;;;;;;;12.70;7.88;;;;;;;5.97;100.00;99713.63;12672762;23;20017;-81
2021/12/13 10:40:43;;;;;;;12.07;7.55;;;;;;;6.12;100.00;99705.72;12685534;23;20018;-81
2021/12/13 10:46:11;;;;;;;10.68;7.45;;;;;;;6.12;100.00;99697.72;12722498;23;20020;-81
2021/12/13 10:51:34;;;;;;;11.43;7.28;;;;;;;6.26;100.00;99698.88;12703208;23;20002;-81
2021/12/13 10:56:42;;;;;;;;;;;;;;;6.20;100.00;99693.75;12715785;23;20422;-82
2021/12/13 11:02:01;;;;;;;10.18;7.22;;;;;;;6.11;100.00;99700.66;12676996;23;19916;-82
2021/12/13 11:07:10;;;;;;;11.82;8.65;;;;;;;6.14;100.00;99702.81;12695525;23;20036;-82
2021/12/13 11:12:46;;;;;;;13.88;8.85;;;;;;;6.17;100.00;99704.94;12695569;23;20018;-82
2021/12/13 11:18:05;;;;;;;;;;;;;;;6.09;100.00;99706.25;12680292;23;20024;-81
2021/12/13 11:23:49;;;;;;;11.98;8.35;;;;;;;6.28;100.00;99710.06;12664546;23;19936;-82
2021/12/13 11:36:10;;;;;;;11.95;8.07;;;;;;;6.37;100.00;99707.72;12666740;23;20058;-81
2021/12/13 11:41:49;;;;;;;13.30;8.30;;;;;;;6.39;100.00;99700.25;12672401;23;20054;-83
2021/12/13 11:47:20;;;;;;;12.10;7.93;;;;;;;6.43;100.00;99697.88;12635688;23;20022;-82
2021/12/13 11:52:59;;;;;;;12.43;7.70;;;;;;;6.47;100.00;99704.28;12601820;23;20030;-81
2021/12/13 11:58:51;;;;;;;10.43;7.53;;;;;;;6.43;100.00;99693.34;12591167;23;20041;-84
2021/12/13 12:05:05;;;;;;;11.57;6.85;;;;;;;6.56;100.00;99692.84;12654881;23;20447;-83
2021/12/13 12:10:57;;;;;;;9.63;6.82;;;;;;;6.34;100.00;99694.91;12587287;23;20092;-81
2021/12/13 12:16:08;;;;;;;8.43;6.05;;;;;;;6.46;100.00;99703.50;12641760;23;20022;-82
2021/12/13 12:22:16;;;;;;;8.35;6.22;;;;;;;6.47;100.00;99696.28;12636858;23;20078;-81
2021/12/13 12:28:13;;;;;;;8.82;6.30;;;;;;;6.40;100.00;99696.53;12786496;23;20124;-84
2021/12/13 12:34:08;;;;;;;8.68;6.20;;;;;;;6.46;100.00;99698.16;12789869;23;20021;-87
2021/12/13 12:39:38;;;;;;;8.50;6.25;;;;;;;6.45;100.00;99683.22;12813693;23;20005;-83
2021/12/13 12:45:00;;;;;;;8.32;6.47;;;;;;;6.50;100.00;99687.78;12808508;23;20079;-82
2021/12/13 12:50:34;;;;;;;8.93;6.50;;;;;;;6.44;100.00;99696.81;12827852;23;20031;-82
2021/12/13 12:56:42;;;;;;;10.18;6.95;;;;;;;6.39;100.00;99694.13;12823923;23;20025;-82
2021/12/13 13:02:10;;;;;;;10.13;6.63;;;;;;;6.47;100.00;99698.94;12868599;23;20024;-84
2021/12/13 13:08:07;;;;;;;9.35;7.15;;;;;;;6.23;100.00;99694.06;12889561;23;20029;-84
2021/12/13 13:30:30;;;;;;;12.48;8.50;;;;;;;6.30;100.00;99685.81;12680803;23;20021;-86
2021/12/13 13:36:16;;;;;;;17.00;10.13;;;;;;;6.26;100.00;99685.53;12720129;23;20046;-83
2021/12/13 13:41:46;;;;;;;24.88;12.98;;;;;;;6.32;100.00;99685.56;12699749;23;20026;-84
2021/12/13 13:59:23;;;;;;;16.50;9.85;;;;;;;6.18;100.00;99696.69;12668645;23;20009;-84
2021/12/13 14:05:09;;;;;;;16.83;10.57;;;;;;;6.18;100.00;99698.56;12818867;23;20021;-85
2021/12/13 14:10:44;;;;;;;17.83;9.82;;;;;;;6.15;100.00;99702.56;12831103;23;20017;-80
2021/12/13 14:22:17;;;;;;;18.25;10.40;;;;;;;6.11;100.00;99712.09;12735451;23;20022;-85
2021/12/13 14:27:46;;;;;;;19.00;11.23;;;;;;;6.14;100.00;99713.47;12788077;23;20013;-83
2021/12/13 14:34:13;;;;;;;20.08;10.82;;;;;;;6.09;100.00;99710.78;12778406;23;20025;-85
2021/12/13 14:40:24;;;;;;;25.00;12.18;;;;;;;6.05;100.00;99721.16;12783229;23;20037;-83
2021/12/13 14:45:53;;;;;;;21.20;11.43;;;;;;;5.94;100.00;99720.28;12780995;23;20270;-85
2021/12/13 14:51:17;;;;;;;21.67;12.00;;;;;;;5.79;100.00;99725.47;12752610;23;20036;-85
2021/12/13 15:03:21;;;;;;;24.30;12.15;;;;;;;5.71;100.00;99731.28;12756950;23;20005;-85
2021/12/13 15:08:50;;;;;;;19.55;10.45;;;;;;;5.76;100.00;99731.31;12748326;23;20014;-82
2021/12/13 15:14:28;;;;;;;18.13;8.95;;;;;;;5.70;100.00;99737.66;12763244;23;20025;-84
2021/12/13 15:19:42;;;;;;;18.98;10.65;;;;;;;5.77;100.00;99740.13;12748526;23;20021;-83
2021/12/13 15:25:10;;;;;;;18.80;9.55;;;;;;;5.82;100.00;99743.59;12716370;23;20022;-81
2021/12/13 15:31:18;;;;;;;17.88;9.68;;;;;;;5.79;100.00;99736.13;12763237;23;20025;-85
2021/12/13 15:36:28;;;;;;;16.27;9.50;;;;;;;5.80;100.00;99739.59;12755230;23;20009;-85
2021/12/13 15:42:12;;;;;;;25.25;12.55;;;;;;;5.70;100.00;99743.00;12788764;23;20009;-86
2021/12/13 15:58:58;;;;;;;27.05;13.23;;;;;;;5.80;100.00;99751.06;12738550;23;20453;-82
2021/12/13 16:04:36;;;;;;;27.58;11.88;;;;;;;5.78;100.00;99750.50;12736608;23;20026;-82
2021/12/13 16:10:06;;;;;;;23.27;12.00;;;;;;;5.77;100.00;99748.13;12773745;23;20025;-80
2021/12/13 16:15:41;;;;;;;23.00;12.00;;;;;;;5.80;100.00;99761.72;12762740;23;20009;-80
2021/12/13 16:20:48;;;;;;;29.23;12.52;;;;;;;5.84;100.00;99762.00;12827687;23;20025;-83
2021/12/13 16:26:11;;;;;;;32.38;14.18;;;;;;;5.81;100.00;99759.84;12831884;23;20061;-83
2021/12/13 16:31:42;;;;;;;24.10;11.77;;;;;;;5.77;100.00;99759.56;12829875;23;20422;-81
2021/12/13 16:37:01;;;;;;;28.90;13.88;;;;;;;5.80;100.00;99769.69;12819299;23;20036;-83
2021/12/13 16:42:10;;;;;;;23.65;11.55;;;;;;;5.82;100.00;99758.78;12801871;23;20052;-83
2021/12/13 16:58:19;;;;;;;26.73;13.35;;;;;;;5.71;100.00;99758.72;12782058;23;20371;-84
2021/12/13 17:03:29;;;;;;;27.98;13.10;;;;;;;5.75;100.00;99771.50;12777069;23;20037;-84
2021/12/13 17:09:07;;;;;;;25.13;11.65;;;;;;;5.76;100.00;99765.13;12764639;23;20021;-84
2021/12/13 17:14:24;;;;;;;25.90;12.52;;;;;;;5.77;100.00;99766.75;12775273;23;20069;-84
2021/12/13 17:19:46;;;;;;;31.20;15.32;;;;;;;5.74;100.00;99764.59;12754857;23;20080;-83
2021/12/13 17:25:06;;;;;;;31.23;14.55;;;;;;;5.70;100.00;99764.31;12737223;23;20021;-82
2021/12/13 17:30:25;;;;;;;34.30;14.50;;;;;;;5.73;100.00;99761.13;12750424;23;20037;-84
2021/12/13 17:35:43;;;;;;;27.98;12.55;;;;;;;5.70;100.00;99757.09;12758292;23;20017;-82
2021/12/13 17:41:27;;;;;;;35.20;15.55;;;;;;;5.74;100.00;99761.91;12756545;23;20045;-86
2021/12/13 17:47:00;;;;;;;35.08;14.98;;;;;;;5.74;100.00;99772.56;12629128;23;20024;-85
2021/12/13 17:58:36;;;;;;;37.35;16.40;;;;;;;5.76;100.00;99770.44;12779192;23;20021;-81
2021/12/13 18:03:50;;;;;;;38.85;16.42;;;;;;;5.74;100.00;99775.25;12726932;23;20021;-81
2021/12/13 18:09:45;;;;;;;43.13;18.15;;;;;;;5.69;100.00;99773.34;12748739;23;20025;-83
2021/12/13 18:26:40;;;;;;;41.17;17.40;;;;;;;5.72;100.00;99778.97;12778502;23;20022;-83
2021/12/13 18:31:55;;;;;;;45.95;18.55;;;;;;;5.74;100.00;99777.91;12738787;23;20025;-81
2021/12/13 18:37:15;;;;;;;38.75;17.88;;;;;;;5.71;100.00;99776.56;12753729;23;20025;-83
2021/12/13 18:42:41;;;;;;;40.00;18.17;;;;;;;5.65;100.00;99790.88;12752828;23;20085;-84
2021/12/13 18:47:55;;;;;;;52.05;20.13;;;;;;;5.66;100.00;99779.16;12736012;23;20064;-83
2021/12/13 18:53:16;;;;;;;42.78;18.65;;;;;;;5.68;100.00;99779.75;12777796;23;20015;-83
2021/12/13 18:58:41;;;;;;;45.85;19.52;;;;;;;5.70;100.00;99777.63;12750816;23;20073;-81
2021/12/13 19:04:14;;;;;;;52.00;21.33;;;;;;;5.70;100.00;99788.28;12727065;23;20017;-82
2021/12/13 19:09:52;;;;;;;46.20;19.88;;;;;;;5.68;100.00;99785.06;12728372;23;20025;-83
2021/12/13 19:15:52;;;;;;;39.05;17.60;;;;;;;5.66;100.00;99782.63;12744668;23;20029;-81
2021/12/13 19:22:08;;;;;;;47.70;19.27;;;;;;;5.58;100.00;99787.66;12751909;23;20513;-84
2021/12/13 19:27:40;;;;;;;49.45;19.60;;;;;;;5.54;100.00;99790.00;12749025;23;20049;-83
2021/12/13 19:33:05;;;;;;;56.30;21.20;;;;;;;5.52;100.00;99780.66;12747766;23;20009;-81
2021/12/13 19:38:51;;;;;;;52.45;19.73;;;;;;;5.53;100.00;99776.94;12721796;23;20021;-84
2021/12/13 19:44:22;;;;;;;68.18;22.05;;;;;;;5.49;100.00;99776.66;12700819;23;20025;-89
2021/12/13 19:51:11;;;;;;;57.42;20.60;;;;;;;5.39;100.00;99771.19;12718891;23;20028;-83
2021/12/13 19:56:28;;;;;;;68.10;23.20;;;;;;;5.37;100.00;99775.97;12736167;23;20021;-83
2021/12/13 20:01:55;;;;;;;57.10;21.50;;;;;;;5.39;100.00;99766.72;12729319;23;20028;-84
2021/12/13 20:07:09;;;;;;;72.25;24.15;;;;;;;5.38;100.00;99769.59;12703406;23;20040;-82
2021/12/13 20:12:44;;;;;;;92.90;27.30;;;;;;;5.29;100.00;99776.44;12726156;23;20028;-83
2021/12/13 20:17:57;;;;;;;80.40;24.42;;;;;;;5.35;100.00;99768.25;12725210;23;20033;-83
2021/12/13 20:23:28;;;;;;;81.40;25.23;;;;;;;5.28;100.00;99766.84;12728603;23;20171;-82
2021/12/13 20:28:54;;;;;;;59.50;21.15;;;;;;;5.34;100.00;99771.16;12754766;23;20032;-81
2021/12/13 20:34:15;;;;;;;54.05;20.20;;;;;;;5.33;100.00;99764.25;12749921;23;20088;-80
2021/12/13 20:39:24;;;;;;;68.25;22.20;;;;;;;5.24;100.00;99763.09;12720720;23;20065;-80
2021/12/13 20:44:36;;;;;;;65.55;23.38;;;;;;;5.18;100.00;99759.56;12753230;23;20006;-81
2021/12/13 20:49:45;;;;;;;60.20;21.73;;;;;;;5.18;100.00;99756.91;12788113;23;20041;-83
2021/12/13 20:55:20;;;;;;;58.83;19.80;;;;;;;5.14;100.00;99755.81;12764833;23;20025;-83
2021/12/13 21:00:33;;;;;;;;;;;;;;;5.12;100.00;99756.06;12760307;23;20060;-81
2021/12/13 21:05:46;;;;;;;43.85;17.00;;;;;;;5.16;100.00;99753.69;12740561;23;19904;-85
2021/12/13 21:12:09;;;;;;;56.50;18.33;;;;;;;5.08;100.00;99749.63;12756912;23;20009;-84
2021/12/13 21:18:37;;;;;;;50.15;18.05;;;;;;;5.12;100.00;99755.22;12485246;23;20013;-87
2021/12/13 21:24:28;;;;;;;40.72;16.65;;;;;;;5.14;100.00;99745.97;12775519;23;20018;-83
2021/12/13 21:29:32;;;;;;;42.03;15.77;;;;;;;5.13;100.00;99746.22;12714918;23;20060;-79
2021/12/13 21:35:01;;;;;;;51.10;18.65;;;;;;;5.10;100.00;99742.16;12744743;23;20014;-82
2021/12/13 21:40:14;;;;;;;53.30;17.92;;;;;;;5.04;100.00;99747.72;12764001;23;20009;-82
2021/12/13 21:45:33;;;;;;;57.72;19.73;;;;;;;5.11;100.00;99761.59;12779866;23;20005;-80
2021/12/13 21:50:53;;;;;;;43.03;17.67;;;;;;;5.06;100.00;99741.09;12777356;23;20025;-80
2021/12/13 21:56:12;;;;;;;53.00;18.23;;;;;;;5.15;100.00;99741.44;12746905;23;20382;-82
2021/12/13 22:01:32;;;;;;;49.45;17.08;;;;;;;5.08;100.00;99730.97;12741735;23;20014;-80
2021/12/13 22:06:42;;;;;;;40.78;15.73;;;;;;;5.08;100.00;99741.63;12739689;23;20025;-79
2021/12/13 22:11:48;;;;;;;32.83;14.45;;;;;;;5.08;100.00;99732.84;12739376;23;20029;-79
2021/12/13 22:17:23;;;;;;;38.45;15.95;;;;;;;5.05;100.00;99725.38;12720351;23;20120;-80
2021/12/13 22:22:27;;;;;;;40.67;17.20;;;;;;;4.99;100.00;99729.03;12686513;23;20044;-81
2021/12/13 22:27:37;;;;;;;34.60;14.27;;;;;;;5.04;100.00;99729.91;12737433;23;20013;-81
2021/12/13 22:32:46;;;;;;;45.00;15.63;;;;;;;4.96;100.00;99727.69;12739223;23;20055;-80
2021/12/13 22:38:01;;;;;;;41.10;16.30;;;;;;;4.94;100.00;99723.63;12708931;23;20025;-81
2021/12/13 22:43:38;;;;;;;31.25;13.85;;;;;;;5.03;100.00;99719.47;12730741;23;20182;-81
2021/12/13 22:48:45;;;;;;;51.42;16.85;;;;;;;4.90;100.00;99726.00;12732031;23;20066;-81
2021/12/13 22:53:50;;;;;;;39.42;15.05;;;;;;;4.97;100.00;99747.09;12708841;23;20053;-79
2021/12/13 22:58:59;;;;;;;41.78;16.35;;;;;;;5.01;100.00;99737.56;12745680;23;20025;-79
2021/12/13 23:04:12;;;;;;;46.28;16.73;;;;;;;4.93;100.00;99735.34;12735626;23;20115;-79
2021/12/13 23:09:30;;;;;;;42.60;15.95;;;;;;;4.93;100.00;99714.84;12748352;23;20020;-79
2021/12/13 23:14:31;;;;;;;40.33;16.13;;;;;;;4.87;100.00;99715.88;12743599;23;20028;-78
2021/12/13 23:19:33;;;;;;;43.17;16.17;;;;;;;4.90;100.00;99706.59;12729020;23;20018;-81
2021/12/13 23:24:36;;;;;;;44.50;17.73;;;;;;;4.88;100.00;99714.81;12707049;23;20021;-80
2021/12/13 23:29:47;;;;;;;44.58;16.45;;;;;;;4.88;100.00;99708.69;12745201;23;20386;-78
2021/12/13 23:34:50;;;;;;;37.63;15.27;;;;;;;4.84;100.00;99697.72;12731602;23;20068;-80
2021/12/13 23:50:43;;;;;;;;;;;;;;;4.77;100.00;99682.00;12751443;23;20028;-81
2021/12/13 23:55:56;;;;;;;46.78;16.88;;;;;;;4.74;100.00;99687.00;12777097;23;19936;-81
